createdAt,value
2019-05-23T00:01:01.968Z,75.54
2019-05-23T00:04:12.376Z,75.50
2019-05-23T00:07:18.817Z,75.56
2019-05-23T00:10:36.502Z,75.61
2019-05-23T00:14:00.763Z,75.53
2019-05-23T00:17:05.260Z,75.54
2019-05-23T00:20:10.148Z,75.62
2019-05-23T00:23:15.427Z,75.58
2019-05-23T00:26:19.441Z,75.60
2019-05-23T00:29:25.772Z,75.54
2019-05-23T00:32:37.345Z,75.43
2019-05-23T00:35:42.422Z,75.43
2019-05-23T00:38:47.649Z,75.41
2019-05-23T00:41:53.993Z,75.36
2019-05-23T00:44:58.983Z,75.37
2019-05-23T00:48:04.278Z,75.46
2019-05-23T00:51:09.955Z,75.45
2019-05-23T00:54:14.584Z,75.40
2019-05-23T00:57:20.455Z,75.28
2019-05-23T01:00:25.997Z,75.13
2019-05-23T01:03:32.189Z,75.03
2019-05-23T01:06:37.398Z,74.90
2019-05-23T01:09:42.882Z,74.80
2019-05-23T01:12:48.422Z,74.61
2019-05-23T01:15:53.766Z,74.50
2019-05-23T01:18:57.881Z,74.38
2019-05-23T01:22:05.205Z,74.24
2019-05-23T01:25:11.995Z,74.12
2019-05-23T01:28:16.388Z,74.01
2019-05-23T01:31:24.085Z,73.91
2019-05-23T01:34:29.541Z,73.76
2019-05-23T01:37:33.471Z,73.79
2019-05-23T01:40:37.973Z,74.05
2019-05-23T01:43:42.407Z,74.23
2019-05-23T01:46:46.822Z,74.37
2019-05-23T01:49:51.429Z,74.55
2019-05-23T01:52:55.978Z,74.44
2019-05-23T01:56:00.165Z,74.43
2019-05-23T01:59:04.485Z,74.49
2019-05-23T02:02:09.048Z,74.53
2019-05-23T02:05:15.170Z,74.60
2019-05-23T02:08:19.454Z,74.62
2019-05-23T02:11:24.505Z,74.58
2019-05-23T02:14:28.696Z,74.58
2019-05-23T02:17:33.554Z,74.45
2019-05-23T02:20:38.242Z,74.41
2019-05-23T02:23:43.234Z,74.48
2019-05-23T02:26:48.133Z,74.48
2019-05-23T02:29:52.554Z,74.51
2019-05-23T02:32:57.535Z,74.74
2019-05-23T02:36:01.547Z,74.98
2019-05-23T02:39:20.154Z,75.12
2019-05-23T02:42:43.818Z,75.19
2019-05-23T02:45:51.935Z,75.24
2019-05-23T02:48:58.904Z,75.29
2019-05-23T02:52:28.557Z,75.33
2019-05-23T02:55:37.533Z,75.27
2019-05-23T02:59:05.255Z,75.22
2019-05-23T03:02:39.789Z,75.04
2019-05-23T03:05:44.822Z,75.03
2019-05-23T03:08:49.220Z,75.10
2019-05-23T03:11:59.127Z,75.16
2019-05-23T03:15:03.927Z,75.25
2019-05-23T03:18:10.198Z,75.29
2019-05-23T03:21:15.815Z,75.19
2019-05-23T03:24:22.110Z,75.22
2019-05-23T03:27:26.882Z,75.13
2019-05-23T03:30:33.395Z,75.30
2019-05-23T03:33:38.404Z,75.35
2019-05-23T03:36:44.150Z,75.27
2019-05-23T03:39:49.379Z,75.05
2019-05-23T03:42:53.495Z,75.01
2019-05-23T03:46:02.240Z,74.97
2019-05-23T03:49:08.636Z,74.96
2019-05-23T03:52:14.993Z,74.85
2019-05-23T03:55:20.870Z,74.87
2019-05-23T03:58:25.370Z,74.75
2019-05-23T04:01:46.703Z,74.62
2019-05-23T04:04:39.715Z,74.67
2019-05-23T04:07:44.505Z,74.68
2019-05-23T04:10:51.642Z,74.51
2019-05-23T04:13:55.379Z,74.43
2019-05-23T04:16:59.764Z,74.42
2019-05-23T04:20:05.068Z,74.40
2019-05-23T04:23:09.378Z,74.30
2019-05-23T04:26:14.194Z,74.29
2019-05-23T04:29:18.766Z,74.26
2019-05-23T04:32:23.094Z,74.24
2019-05-23T04:35:27.570Z,74.27
2019-05-23T04:38:35.825Z,74.25
2019-05-23T04:41:38.119Z,74.21
2019-05-23T04:44:44.427Z,74.21
2019-05-23T04:47:48.693Z,74.00
2019-05-23T04:50:53.792Z,73.87
2019-05-23T04:53:57.977Z,73.90
2019-05-23T04:57:03.430Z,73.84
2019-05-23T05:00:09.232Z,73.80
2019-05-23T05:03:17.904Z,74.03
2019-05-23T05:06:21.033Z,74.32
2019-05-23T05:09:27.882Z,74.22
2019-05-23T05:12:31.910Z,73.80
2019-05-23T05:15:37.710Z,73.62
2019-05-23T05:18:41.943Z,73.10
2019-05-23T05:21:46.065Z,73.59
2019-05-23T05:24:50.010Z,73.59
2019-05-23T05:27:54.089Z,73.80
2019-05-23T05:30:58.572Z,73.48
2019-05-23T05:34:02.739Z,73.32
2019-05-23T05:37:06.974Z,73.38
2019-05-23T05:40:11.614Z,73.16
2019-05-23T05:43:16.137Z,72.68
2019-05-23T05:46:20.356Z,72.34
2019-05-23T05:49:24.906Z,72.03
2019-05-23T05:52:29.335Z,71.62
2019-05-23T05:55:33.589Z,71.03
2019-05-23T05:58:37.637Z,71.08
2019-05-23T06:01:41.858Z,70.82
2019-05-23T06:04:46.595Z,70.49
2019-05-23T06:07:50.549Z,70.05
2019-05-23T06:10:54.564Z,69.78
2019-05-23T06:13:59.173Z,69.22
2019-05-23T06:17:07.079Z,69.20
2019-05-23T06:20:11.584Z,68.29
2019-05-23T06:23:17.926Z,67.02
2019-05-23T06:26:22.399Z,65.80
2019-05-23T06:29:26.827Z,65.01
2019-05-23T06:32:31.617Z,65.64
2019-05-23T06:35:36.153Z,66.07
2019-05-23T06:38:40.843Z,65.69
2019-05-23T06:41:44.814Z,64.41
2019-05-23T06:44:48.943Z,61.46
2019-05-23T06:47:52.976Z,57.79
2019-05-23T06:50:57.019Z,56.92
2019-05-23T06:54:01.236Z,56.29
2019-05-23T06:57:05.578Z,54.13
2019-05-23T07:00:09.937Z,53.81
2019-05-23T07:03:14.510Z,52.97
2019-05-23T07:06:21.690Z,52.45
2019-05-23T07:09:25.698Z,52.35
2019-05-23T07:12:29.801Z,52.83
2019-05-23T07:15:33.922Z,53.90
2019-05-23T07:18:39.931Z,54.12
2019-05-23T07:21:44.613Z,54.50
2019-05-23T07:24:58.069Z,55.10
2019-05-23T07:27:55.173Z,54.55
2019-05-23T07:30:59.527Z,53.45
2019-05-23T07:34:04.042Z,53.29
2019-05-23T07:37:08.878Z,53.90
2019-05-23T07:40:12.881Z,53.57
2019-05-23T07:43:17.221Z,52.53
2019-05-23T07:46:21.424Z,52.22
2019-05-23T07:49:25.950Z,52.15
2019-05-23T07:52:30.665Z,52.21
2019-05-23T07:55:42.001Z,52.09
2019-05-23T07:58:46.113Z,51.20
2019-05-23T08:01:58.682Z,50.89
2019-05-23T08:05:03.042Z,50.20
2019-05-23T08:08:07.923Z,50.31
2019-05-23T08:11:12.317Z,52.58
2019-05-23T08:14:16.521Z,54.40
2019-05-23T08:17:21.265Z,56.26
2019-05-23T08:20:27.016Z,57.72
2019-05-23T08:23:31.092Z,58.53
2019-05-23T08:26:35.243Z,59.30
2019-05-23T08:29:40.015Z,59.44
2019-05-23T08:32:44.436Z,59.49
2019-05-23T08:35:48.315Z,59.29
2019-05-23T08:38:52.397Z,59.18
2019-05-23T08:41:56.431Z,59.15
2019-05-23T08:45:00.661Z,59.16
2019-05-23T08:48:05.000Z,59.08
2019-05-23T08:51:09.305Z,58.77
2019-05-23T08:54:13.388Z,58.48
2019-05-23T08:57:17.955Z,58.35
2019-05-23T09:00:22.640Z,57.59
2019-05-23T09:03:26.760Z,56.85
2019-05-23T09:06:31.153Z,56.19
2019-05-23T09:09:35.501Z,54.69
2019-05-23T09:12:40.506Z,53.59
2019-05-23T09:15:44.754Z,52.35
2019-05-23T09:18:48.941Z,51.62
2019-05-23T09:21:57.851Z,49.83
2019-05-23T09:24:58.985Z,49.83
2019-05-23T09:28:03.983Z,47.73
2019-05-23T09:31:08.219Z,47.32
2019-05-23T09:34:12.497Z,46.90
2019-05-23T09:37:16.695Z,46.40
2019-05-23T09:40:20.785Z,45.92
2019-05-23T09:43:25.268Z,45.92
2019-05-23T09:46:29.578Z,45.09
2019-05-23T09:49:33.845Z,42.92
2019-05-23T09:52:37.884Z,42.92
2019-05-23T09:55:41.903Z,42.85
2019-05-23T09:58:46.414Z,43.15
2019-05-23T10:01:50.564Z,42.45
2019-05-23T10:04:54.640Z,41.82
2019-05-23T10:07:59.132Z,41.82
2019-05-23T10:11:03.227Z,41.52
2019-05-23T10:14:09.099Z,40.69
2019-05-23T10:17:13.234Z,40.26
2019-05-23T10:20:18.961Z,40.03
2019-05-23T10:23:23.301Z,39.63
2019-05-23T10:26:27.848Z,38.96
2019-05-23T10:29:31.851Z,38.90
2019-05-23T10:32:36.171Z,38.03
2019-05-23T10:35:40.183Z,37.85
2019-05-23T10:38:44.590Z,37.27
2019-05-23T10:41:48.743Z,36.34
2019-05-23T10:44:52.691Z,36.18
2019-05-23T10:47:57.403Z,36.25
2019-05-23T10:51:01.583Z,36.23
2019-05-23T10:54:05.731Z,35.22
2019-05-23T10:57:10.012Z,35.62
2019-05-23T11:00:17.487Z,35.08
2019-05-23T11:03:22.525Z,34.72
2019-05-23T11:06:27.013Z,34.00
2019-05-23T11:09:37.656Z,33.33
2019-05-23T11:12:37.126Z,32.59
2019-05-23T11:15:41.962Z,32.53
2019-05-23T11:18:45.973Z,32.63
2019-05-23T11:21:50.228Z,32.34
2019-05-23T11:24:54.438Z,32.62
2019-05-23T11:27:59.651Z,32.82
2019-05-23T11:31:05.615Z,32.50
2019-05-23T11:34:09.735Z,32.47
2019-05-23T11:37:13.916Z,31.94
2019-05-23T11:40:17.918Z,31.51
2019-05-23T11:43:21.940Z,30.39
2019-05-23T11:46:29.659Z,30.36
2019-05-23T11:49:34.547Z,29.64
2019-05-23T11:52:38.793Z,29.38
2019-05-23T11:55:42.870Z,29.27
2019-05-23T11:58:47.238Z,29.33
2019-05-23T12:02:02.091Z,29.56
2019-05-23T12:05:10.300Z,30.22
2019-05-23T12:08:14.466Z,30.69
2019-05-23T12:11:18.801Z,30.67
2019-05-23T12:14:22.818Z,30.51
2019-05-23T12:17:29.748Z,30.54
2019-05-23T12:20:34.066Z,30.21
2019-05-23T12:23:38.491Z,30.38
2019-05-23T12:26:42.502Z,30.43
2019-05-23T12:29:46.547Z,30.52
2019-05-23T12:32:50.845Z,31.26
2019-05-23T12:35:54.846Z,31.97
2019-05-23T12:38:59.383Z,31.79
2019-05-23T12:42:04.530Z,30.62
2019-05-23T12:45:09.246Z,30.20
2019-05-23T12:48:21.146Z,29.67
2019-05-23T12:51:27.678Z,29.39
2019-05-23T12:54:32.804Z,28.99
2019-05-23T12:57:37.049Z,28.49
2019-05-23T13:00:49.851Z,28.27
2019-05-23T13:03:54.163Z,27.89
2019-05-23T13:06:58.167Z,27.68
2019-05-23T13:10:02.284Z,28.20
2019-05-23T13:13:06.611Z,28.78
2019-05-23T13:16:10.617Z,28.76
2019-05-23T13:19:15.079Z,28.31
2019-05-23T13:22:19.250Z,28.74
2019-05-23T13:25:24.771Z,29.09
2019-05-23T13:28:29.764Z,29.07
2019-05-23T13:31:34.075Z,29.15
2019-05-23T13:34:38.254Z,29.27
2019-05-23T13:37:53.091Z,29.03
2019-05-23T13:40:48.803Z,28.57
2019-05-23T13:43:53.708Z,28.39
2019-05-23T13:46:57.902Z,27.95
2019-05-23T13:50:02.670Z,27.92
2019-05-23T13:53:06.752Z,27.93
2019-05-23T13:56:10.780Z,28.08
2019-05-23T13:59:15.102Z,27.91
2019-05-23T14:02:19.975Z,27.51
2019-05-23T14:05:24.867Z,27.39
2019-05-23T14:08:28.798Z,27.70
2019-05-23T14:11:32.860Z,27.72
2019-05-23T14:14:38.390Z,27.74
2019-05-23T14:17:44.677Z,28.62
2019-05-23T14:20:49.553Z,29.39
2019-05-23T14:23:53.569Z,30.00
2019-05-23T14:27:06.213Z,30.35
2019-05-23T14:30:21.532Z,30.86
2019-05-23T14:33:38.667Z,31.06
2019-05-23T14:36:55.838Z,31.54
2019-05-23T14:40:03.981Z,31.82
2019-05-23T14:43:21.795Z,32.07
2019-05-23T14:46:29.104Z,32.08
2019-05-23T14:53:22.219Z,32.27
2019-05-23T14:56:27.108Z,32.66
2019-05-23T14:59:32.134Z,33.05
2019-05-23T15:02:36.957Z,33.15
2019-05-23T15:05:42.156Z,32.84
2019-05-23T15:08:51.129Z,32.25
2019-05-23T15:11:54.448Z,31.84
2019-05-23T15:14:59.914Z,31.47
2019-05-23T15:18:08.570Z,31.30
2019-05-23T15:21:13.337Z,30.95
2019-05-23T15:24:19.571Z,31.40
2019-05-23T15:27:23.893Z,31.29
2019-05-23T15:30:28.336Z,30.91
2019-05-23T15:33:32.402Z,31.40
2019-05-23T15:36:36.717Z,31.24
2019-05-23T15:39:40.972Z,31.68
2019-05-23T15:42:44.977Z,31.70
2019-05-23T15:45:49.568Z,31.86
2019-05-23T15:48:53.606Z,31.79
2019-05-23T15:52:22.888Z,31.69
2019-05-23T15:55:41.991Z,31.56
2019-05-23T15:59:00.890Z,31.46
2019-05-23T16:02:12.535Z,31.47
2019-05-23T16:05:16.983Z,31.93
2019-05-23T16:08:21.169Z,31.62
2019-05-23T16:11:26.118Z,31.90
2019-05-23T16:14:31.565Z,32.52
2019-05-23T16:17:35.427Z,31.72
2019-05-23T16:20:39.804Z,31.59
2019-05-23T16:23:43.824Z,31.22
2019-05-23T16:26:48.156Z,31.21
2019-05-23T16:29:54.206Z,31.50
2019-05-23T16:32:58.224Z,32.13
2019-05-23T16:36:02.428Z,32.01
2019-05-23T16:39:08.566Z,32.14
2019-05-23T16:42:13.278Z,32.63
2019-05-23T16:45:17.483Z,32.50
2019-05-23T16:48:21.601Z,32.03
2019-05-23T16:51:26.054Z,31.85
2019-05-23T16:54:34.739Z,31.95
2019-05-23T16:57:50.135Z,31.86
2019-05-23T17:01:02.189Z,32.00
2019-05-23T17:04:25.359Z,32.28
2019-05-23T17:07:48.551Z,33.18
2019-05-23T17:11:00.740Z,34.96
2019-05-23T17:14:11.525Z,36.01
2019-05-23T17:18:00.565Z,37.22
2019-05-23T17:21:04.883Z,37.18
2019-05-23T17:24:22.081Z,37.72
2019-05-23T17:27:36.077Z,38.93
2019-05-23T17:30:45.331Z,39.39
2019-05-23T17:33:50.168Z,39.81
2019-05-23T17:36:54.173Z,40.51
2019-05-23T17:39:58.466Z,40.29
2019-05-23T17:43:02.858Z,40.33
2019-05-23T17:46:06.965Z,40.94
2019-05-23T17:49:11.478Z,41.93
2019-05-23T17:52:17.765Z,42.40
2019-05-23T17:55:22.001Z,42.84
2019-05-23T17:58:26.410Z,42.99
2019-05-23T18:01:32.114Z,42.64
2019-05-23T18:04:36.709Z,42.67
2019-05-23T18:07:41.717Z,43.01
2019-05-23T18:10:46.409Z,43.27
2019-05-23T18:13:51.116Z,43.75
2019-05-23T18:16:55.597Z,44.24
2019-05-23T18:19:59.864Z,45.33
2019-05-23T18:23:04.487Z,45.90
2019-05-23T18:26:21.265Z,45.94
2019-05-23T18:29:26.279Z,46.00
2019-05-23T18:32:31.391Z,46.46
2019-05-23T18:35:35.544Z,47.37
2019-05-23T18:38:39.841Z,47.71
2019-05-23T18:41:44.012Z,48.02
2019-05-23T18:44:49.741Z,48.54
2019-05-23T18:47:54.646Z,48.84
2019-05-23T18:50:59.305Z,49.16
2019-05-23T18:54:04.266Z,49.33
2019-05-23T18:57:08.984Z,50.12
2019-05-23T19:00:14.106Z,50.67
2019-05-23T19:03:18.966Z,50.94
2019-05-23T19:06:23.645Z,51.29
2019-05-23T19:09:28.306Z,51.65
2019-05-23T19:12:32.961Z,51.88
2019-05-23T19:15:37.431Z,52.26
2019-05-23T19:18:41.366Z,52.66
2019-05-23T19:21:45.625Z,53.15
2019-05-23T19:24:49.821Z,53.42
2019-05-23T19:27:54.362Z,53.73
2019-05-23T19:30:58.865Z,54.25
2019-05-23T19:34:03.112Z,54.45
2019-05-23T19:37:09.091Z,54.51
2019-05-23T19:40:15.150Z,54.75
2019-05-23T19:43:19.779Z,54.99
2019-05-23T19:46:24.073Z,55.30
2019-05-23T19:49:28.494Z,55.53
2019-05-23T19:52:32.668Z,55.74
2019-05-23T19:55:40.152Z,56.11
2019-05-23T19:58:44.158Z,56.31
2019-05-23T20:02:06.503Z,56.29
2019-05-23T20:05:16.840Z,56.74
2019-05-23T20:08:20.963Z,56.74
2019-05-23T20:11:25.437Z,57.24
2019-05-23T20:14:30.053Z,57.51
2019-05-23T20:17:34.476Z,57.74
2019-05-23T20:20:39.295Z,57.84
2019-05-23T20:23:43.567Z,58.11
2019-05-23T20:26:47.567Z,58.41
2019-05-23T20:29:51.512Z,58.71
2019-05-23T20:32:55.781Z,58.91
2019-05-23T20:36:01.671Z,59.07
2019-05-23T20:39:07.946Z,59.08
2019-05-23T20:42:12.368Z,59.17
2019-05-23T20:45:16.745Z,59.32
2019-05-23T20:48:20.997Z,59.62
2019-05-23T20:51:25.912Z,59.79
2019-05-23T20:54:33.351Z,59.97
2019-05-23T20:57:35.699Z,60.31
2019-05-23T21:00:57.953Z,60.50
2019-05-23T21:04:02.346Z,60.72
2019-05-23T21:07:06.451Z,60.83
2019-05-23T21:10:12.673Z,61.04
2019-05-23T21:13:16.892Z,61.17
2019-05-23T21:16:21.004Z,61.22
2019-05-23T21:19:25.288Z,61.50
2019-05-23T21:22:29.856Z,61.67
2019-05-23T21:25:34.583Z,61.85
2019-05-23T21:28:38.596Z,62.13
2019-05-23T21:31:42.676Z,62.30
2019-05-23T21:34:46.911Z,62.40
2019-05-23T21:37:51.563Z,62.45
2019-05-23T21:40:55.547Z,62.76
2019-05-23T21:44:00.692Z,62.93
2019-05-23T21:47:04.754Z,62.94
2019-05-23T21:50:09.570Z,63.16
2019-05-23T21:53:13.961Z,63.35
2019-05-23T21:56:18.024Z,63.53
2019-05-23T21:59:22.277Z,63.75
2019-05-23T22:02:32.378Z,63.88
2019-05-23T22:05:37.538Z,64.27
2019-05-23T22:08:41.899Z,64.55
2019-05-23T22:11:46.808Z,64.56
2019-05-23T22:14:51.027Z,64.51
2019-05-23T22:17:55.384Z,64.81
2019-05-23T22:20:59.661Z,64.97
2019-05-23T22:24:04.439Z,65.01
2019-05-23T22:27:11.270Z,65.09
2019-05-23T22:30:15.741Z,65.20
2019-05-23T22:33:21.797Z,65.33
2019-05-23T22:36:26.152Z,65.35
2019-05-23T22:39:30.368Z,65.41
2019-05-23T22:42:34.670Z,65.56
2019-05-23T22:45:39.082Z,65.72
2019-05-23T22:48:43.346Z,65.80
2019-05-23T22:51:47.779Z,65.94
2019-05-23T22:54:51.981Z,66.07
2019-05-23T22:57:56.320Z,66.07
2019-05-23T23:01:00.268Z,66.08
2019-05-23T23:04:04.454Z,66.02
2019-05-23T23:07:09.175Z,66.14
2019-05-23T23:10:14.930Z,66.27
2019-05-23T23:13:18.959Z,66.49
2019-05-23T23:16:22.909Z,66.61
2019-05-23T23:19:27.507Z,66.64
2019-05-23T23:22:31.879Z,66.87
2019-05-23T23:25:36.147Z,67.04
2019-05-23T23:28:40.656Z,67.10
2019-05-23T23:31:45.263Z,67.28
2019-05-23T23:34:49.288Z,67.35
2019-05-23T23:37:53.362Z,67.48
2019-05-23T23:40:57.465Z,67.61
2019-05-23T23:44:01.562Z,67.68
2019-05-23T23:47:24.480Z,67.66
2019-05-23T23:50:46.325Z,67.69
2019-05-23T23:54:08.161Z,67.67
2019-05-23T23:57:29.764Z,67.71
